Time;durP1;ratioP1;P1;durP2;ratioP2;P2;SDS_P1;SDS_P2;PMS_P1;PMS_P2;Temp;Humidity;BMP_temperature;BMP_pressure;BME280_temperature;BME280_humidity;BME280_pressure;Samples;Min_cycle;Max_cycle;Signal;HPM_P1;HPM_P2
2021/11/26 00:00:07;;;;;;;28.63;17.73;;;5.10;99.90;;;;;;5120610;28;20019;-81
2021/11/26 00:02:33;;;;;;;32.77;19.63;;;4.90;99.90;;;;;;5120626;28;20032;-81
2021/11/26 00:05:00;;;;;;;31.13;18.70;;;4.90;99.90;;;;;;5103382;28;20019;-82
2021/11/26 00:07:27;;;;;;;30.30;19.17;;;4.90;99.90;;;;;;5104199;28;20080;-81
2021/11/26 00:09:53;;;;;;;31.33;19.27;;;4.80;99.90;;;;;;5121152;28;20038;-81
2021/11/26 00:12:19;;;;;;;34.80;21.37;;;4.80;99.90;;;;;;5122099;28;20458;-79
2021/11/26 00:14:52;;;;;;;30.70;18.97;;;4.70;99.90;;;;;;5122024;28;20032;-81
2021/11/26 00:17:19;;;;;;;29.92;18.67;;;4.70;99.90;;;;;;5122357;28;20043;-82
2021/11/26 00:19:48;;;;;;;34.53;18.97;;;4.70;99.90;;;;;;5106221;28;20034;-81
2021/11/26 00:22:15;;;;;;;33.00;19.23;;;4.70;99.90;;;;;;5121522;28;20032;-81
2021/11/26 00:24:41;;;;;;;30.63;18.40;;;4.60;99.90;;;;;;5122058;28;20047;-80
2021/11/26 00:27:07;;;;;;;31.33;19.27;;;4.60;99.90;;;;;;5106075;28;20034;-80
2021/11/26 00:29:33;;;;;;;30.03;18.10;;;4.70;99.90;;;;;;5106026;28;20034;-81
2021/11/26 00:31:58;;;;;;;27.53;17.33;;;4.60;99.90;;;;;;5105685;28;20116;-83
2021/11/26 00:34:24;;;;;;;31.27;16.67;;;4.50;99.90;;;;;;5123249;28;20031;-80
2021/11/26 00:36:50;;;;;;;28.17;16.33;;;4.50;99.90;;;;;;5123705;28;20399;-80
2021/11/26 00:39:16;;;;;;;33.57;19.03;;;4.40;99.90;;;;;;5123842;28;20031;-82
2021/11/26 00:41:42;;;;;;;31.37;18.73;;;4.40;99.90;;;;;;5125381;28;20016;-81
2021/11/26 00:44:08;;;;;;;31.00;18.33;;;4.40;99.90;;;;;;5107693;28;20047;-80
2021/11/26 00:46:34;;;;;;;26.33;17.87;;;4.30;99.90;;;;;;5107923;28;20032;-81
2021/11/26 00:49:00;;;;;;;30.93;18.30;;;4.30;99.90;;;;;;5108708;28;20028;-82
2021/11/26 00:51:26;;;;;;;31.63;18.20;;;4.30;99.90;;;;;;5126115;28;20023;-81
2021/11/26 00:53:52;;;;;;;28.73;18.70;;;4.30;99.90;;;;;;5129979;28;20055;-81
2021/11/26 00:56:18;;;;;;;28.47;18.53;;;4.40;99.90;;;;;;5133475;28;21872;-81
2021/11/26 00:58:45;;;;;;;29.00;18.37;;;4.40;99.90;;;;;;5118567;28;20027;-80
2021/11/26 01:01:10;;;;;;;32.13;19.10;;;4.40;99.90;;;;;;5137196;28;20030;-80
2021/11/26 01:03:36;;;;;;;26.97;18.03;;;4.40;99.90;;;;;;5122994;28;20055;-80
2021/11/26 01:06:02;;;;;;;33.07;17.90;;;4.50;99.90;;;;;;5139880;28;20486;-82
2021/11/26 01:08:27;;;;;;;30.43;16.90;;;4.60;99.90;;;;;;5139002;28;20091;-82
2021/11/26 01:10:54;;;;;;;29.67;18.57;;;4.70;99.90;;;;;;5121775;28;20027;-80
2021/11/26 01:13:20;;;;;;;34.13;18.30;;;4.70;99.90;;;;;;5121647;28;20011;-81
2021/11/26 01:15:47;;;;;;;26.40;16.90;;;4.90;99.90;;;;;;5137429;28;20052;-80
2021/11/26 01:18:15;;;;;;;26.03;16.87;;;4.90;99.90;;;;;;5120381;28;20023;-81
2021/11/26 01:20:42;;;;;;;25.10;16.83;;;5.00;99.90;;;;;;5119094;28;20039;-79
2021/11/26 01:23:08;;;;;;;27.63;16.17;;;5.00;99.90;;;;;;5094494;28;20091;-80
2021/11/26 01:25:35;;;;;;;27.17;15.97;;;5.00;99.90;;;;;;5116304;28;20471;-80
2021/11/26 01:28:01;;;;;;;26.37;15.63;;;5.00;99.90;;;;;;5125918;28;20024;-80
2021/11/26 01:30:33;;;;;;;26.60;16.63;;;5.00;99.90;;;;;;5108531;28;20035;-79
2021/11/26 01:33:02;;;;;;;27.10;16.67;;;5.10;99.90;;;;;;5125677;28;20020;-81
2021/11/26 01:35:30;;;;;;;31.33;16.10;;;5.20;99.90;;;;;;5125583;28;20020;-82
2021/11/26 01:37:55;;;;;;;21.83;14.40;;;5.10;99.90;;;;;;5123042;28;20114;-81
2021/11/26 01:40:22;;;;;;;26.10;15.40;;;5.10;99.90;;;;;;5106442;28;20054;-79
2021/11/26 01:42:51;;;;;;;22.37;14.47;;;5.10;99.90;;;;;;5129152;28;20047;-81
2021/11/26 01:45:17;;;;;;;27.60;15.10;;;5.10;99.90;;;;;;5125724;28;20028;-79
2021/11/26 01:47:43;;;;;;;22.53;15.30;;;5.10;99.90;;;;;;5124086;28;20508;-81
2021/11/26 01:50:11;;;;;;;27.80;14.93;;;5.10;99.90;;;;;;5122535;28;20051;-80
2021/11/26 01:52:36;;;;;;;26.00;15.13;;;5.10;99.90;;;;;;5105030;28;20034;-81
2021/11/26 01:55:05;;;;;;;22.27;14.50;;;5.10;99.90;;;;;;5123484;28;20032;-80
2021/11/26 01:57:31;;;;;;;23.40;14.03;;;5.20;99.90;;;;;;5122893;28;20059;-81
2021/11/26 01:59:57;;;;;;;24.63;13.20;;;5.20;99.90;;;;;;5127649;28;20027;-80
2021/11/26 02:02:23;;;;;;;26.40;13.20;;;5.20;99.90;;;;;;5107563;28;20031;-82
2021/11/26 02:04:48;;;;;;;24.97;12.27;;;5.20;99.90;;;;;;5107210;28;20061;-81
2021/11/26 02:07:14;;;;;;;22.37;13.10;;;5.20;99.90;;;;;;5124311;28;20127;-82
2021/11/26 02:09:40;;;;;;;19.43;12.40;;;5.30;99.90;;;;;;5106383;28;20027;-80
2021/11/26 02:12:07;;;;;;;22.77;12.50;;;5.20;99.90;;;;;;5122863;28;20423;-80
2021/11/26 02:14:33;;;;;;;24.63;12.20;;;5.20;99.90;;;;;;5123629;28;20032;-80
2021/11/26 02:16:59;;;;;;;25.40;12.77;;;5.30;99.90;;;;;;5124465;28;20372;-79
2021/11/26 02:19:26;;;;;;;24.13;12.57;;;5.30;99.90;;;;;;5123867;28;20027;-81
2021/11/26 02:21:54;;;;;;;19.67;12.10;;;5.20;99.90;;;;;;5104785;28;20036;-81
2021/11/26 02:24:21;;;;;;;20.30;11.60;;;5.30;99.90;;;;;;5123439;28;20092;-82
2021/11/26 02:26:49;;;;;;;19.20;11.40;;;5.30;99.90;;;;;;5125238;28;20099;-82
2021/11/26 02:29:17;;;;;;;18.13;11.40;;;5.30;99.90;;;;;;5124462;28;20039;-82
2021/11/26 02:31:44;;;;;;;22.00;11.40;;;5.30;99.90;;;;;;5123840;28;20027;-81
2021/11/26 02:34:11;;;;;;;21.43;11.40;;;5.30;99.90;;;;;;5106393;28;20039;-80
2021/11/26 02:36:37;;;;;;;20.50;10.80;;;5.20;99.90;;;;;;5123526;28;20528;-81
2021/11/26 02:39:09;;;;;;;18.10;10.83;;;5.20;99.90;;;;;;5123831;28;20032;-81
2021/11/26 02:41:36;;;;;;;21.00;10.90;;;5.30;99.90;;;;;;5122422;28;20023;-83
2021/11/26 02:44:02;;;;;;;17.60;11.00;;;5.30;99.90;;;;;;5102499;28;20023;-82
2021/11/26 02:46:28;;;;;;;20.47;10.40;;;5.30;99.90;;;;;;5120521;28;20094;-83
2021/11/26 02:48:53;;;;;;;19.50;10.83;;;5.40;99.90;;;;;;5121426;28;20028;-84
2021/11/26 02:51:19;;;;;;;21.40;10.90;;;5.40;99.90;;;;;;5120804;28;20500;-81
2021/11/26 02:53:45;;;;;;;17.47;10.60;;;5.40;99.90;;;;;;5122310;28;20106;-82
2021/11/26 02:56:11;;;;;;;19.30;9.70;;;5.50;99.90;;;;;;5103118;28;20028;-80
2021/11/26 02:58:36;;;;;;;16.93;9.83;;;5.50;99.90;;;;;;5120699;28;20036;-83
2021/11/26 03:01:03;;;;;;;17.50;9.17;;;5.50;99.90;;;;;;5120166;28;20357;-83
2021/11/26 03:03:29;;;;;;;11.77;8.93;;;5.50;99.90;;;;;;5121028;28;20026;-82
2021/11/26 03:06:01;;;;;;;17.47;9.43;;;5.50;99.90;;;;;;5122777;28;20031;-82
2021/11/26 03:08:27;;;;;;;17.10;9.97;;;5.60;99.90;;;;;;5120758;28;20032;-83
2021/11/26 03:10:53;;;;;;;19.63;9.83;;;5.60;99.90;;;;;;5120831;28;20123;-83
2021/11/26 03:13:18;;;;;;;15.93;10.40;;;5.60;99.90;;;;;;5121701;28;20081;-83
2021/11/26 03:15:44;;;;;;;22.60;10.53;;;5.70;99.90;;;;;;5122294;28;20046;-83
2021/11/26 03:18:15;;;;;;;20.03;10.33;;;5.70;99.90;;;;;;5121354;28;20063;-83
2021/11/26 03:20:42;;;;;;;18.57;9.43;;;5.80;99.90;;;;;;5121233;28;20097;-83
2021/11/26 03:23:10;;;;;;;16.93;9.60;;;5.80;99.90;;;;;;5103321;28;20024;-82
2021/11/26 03:25:36;;;;;;;20.93;10.17;;;5.80;99.90;;;;;;5118723;28;20051;-82
2021/11/26 03:28:01;;;;;;;17.73;9.20;;;5.80;99.90;;;;;;5101900;28;20076;-82
2021/11/26 03:30:27;;;;;;;17.00;9.27;;;5.80;99.90;;;;;;5101014;28;20020;-81
2021/11/26 03:32:56;;;;;;;18.03;9.37;;;5.80;99.90;;;;;;5118632;28;20049;-82
2021/11/26 03:35:21;;;;;;;17.63;9.70;;;5.80;99.90;;;;;;5120414;28;20027;-81
2021/11/26 03:37:48;;;;;;;16.53;10.10;;;5.80;99.90;;;;;;5118634;28;20494;-81
2021/11/26 03:40:16;;;;;;;21.10;10.40;;;5.70;99.90;;;;;;5118662;28;20087;-81
2021/11/26 03:42:42;;;;;;;19.80;10.07;;;5.80;99.90;;;;;;5118073;28;20034;-82
2021/11/26 03:45:09;;;;;;;24.27;10.33;;;5.80;99.90;;;;;;5099603;28;20032;-81
2021/11/26 03:47:35;;;;;;;26.80;10.80;;;5.80;99.90;;;;;;5120012;28;20373;-84
2021/11/26 03:50:01;;;;;;;16.83;10.67;;;5.80;99.90;;;;;;5121514;28;20031;-83
2021/11/26 03:52:27;;;;;;;15.80;10.67;;;5.80;99.90;;;;;;5120169;28;20380;-83
2021/11/26 03:54:53;;;;;;;23.13;11.80;;;5.80;99.90;;;;;;5104485;28;20035;-82
2021/11/26 03:57:20;;;;;;;21.83;12.17;;;5.80;99.90;;;;;;5120969;28;20043;-80
2021/11/26 03:59:46;;;;;;;23.20;12.87;;;5.80;99.90;;;;;;5120566;28;20036;-83
2021/11/26 04:02:12;;;;;;;23.73;13.10;;;5.90;99.90;;;;;;5122880;28;20036;-82
2021/11/26 04:04:38;;;;;;;27.80;13.57;;;5.90;99.90;;;;;;5121320;27;20102;-82
2021/11/26 04:07:05;;;;;;;25.33;12.97;;;5.80;99.90;;;;;;5120843;28;20032;-84
2021/11/26 04:09:31;;;;;;;21.67;12.27;;;5.90;99.90;;;;;;5104728;28;20072;-81
2021/11/26 04:11:57;;;;;;;20.83;13.37;;;5.90;99.90;;;;;;5121810;28;20474;-82
2021/11/26 04:14:23;;;;;;;23.90;13.53;;;5.90;99.90;;;;;;5121934;28;20030;-82
2021/11/26 04:16:49;;;;;;;26.50;14.23;;;5.90;99.90;;;;;;5121626;28;20032;-82
2021/11/26 04:19:15;;;;;;;24.80;12.87;;;5.80;99.90;;;;;;5120954;28;20447;-82
2021/11/26 04:21:41;;;;;;;22.40;12.60;;;5.80;99.90;;;;;;5121555;28;20374;-82
2021/11/26 04:24:07;;;;;;;25.97;13.40;;;5.90;99.90;;;;;;5105325;28;20077;-81
2021/11/26 04:26:32;;;;;;;22.30;14.20;;;5.90;99.90;;;;;;5122610;28;20116;-82
2021/11/26 04:28:59;;;;;;;22.60;14.20;;;5.90;99.90;;;;;;5121772;28;20028;-83
2021/11/26 04:31:26;;;;;;;27.27;14.90;;;5.90;99.90;;;;;;5124199;28;20020;-81
2021/11/26 04:33:54;;;;;;;29.20;15.13;;;6.00;99.90;;;;;;5128791;28;20034;-81
2021/11/26 04:36:20;;;;;;;23.17;15.07;;;6.10;99.90;;;;;;5134673;28;20045;-82
2021/11/26 04:38:46;;;;;;;31.10;17.00;;;6.10;99.90;;;;;;5137279;28;20027;-82
2021/11/26 04:41:12;;;;;;;30.77;16.23;;;6.10;99.90;;;;;;5138278;28;20155;-81
2021/11/26 04:43:38;;;;;;;29.90;17.83;;;6.10;99.90;;;;;;5139310;28;20003;-81
2021/11/26 04:46:03;;;;;;;35.43;17.60;;;6.10;99.90;;;;;;5122646;28;20023;-81
2021/11/26 04:48:30;;;;;;;31.53;18.17;;;6.10;99.90;;;;;;5139410;28;20050;-82
2021/11/26 04:50:55;;;;;;;31.73;19.83;;;6.00;99.90;;;;;;5122795;28;20034;-83
2021/11/26 04:53:21;;;;;;;31.70;19.27;;;6.10;99.90;;;;;;5123082;28;20047;-81
2021/11/26 04:55:48;;;;;;;36.97;21.07;;;6.10;99.90;;;;;;5123490;28;20011;-81
2021/11/26 04:58:13;;;;;;;32.00;21.23;;;6.00;99.90;;;;;;5136425;28;20061;-82
2021/11/26 05:00:39;;;;;;;31.63;20.27;;;6.00;99.90;;;;;;5128677;28;20028;-83
2021/11/26 05:03:05;;;;;;;38.37;21.17;;;6.10;99.90;;;;;;5110731;28;20024;-83
2021/11/26 05:05:32;;;;;;;35.70;21.90;;;6.20;99.90;;;;;;5124572;28;20023;-82
2021/11/26 05:07:58;;;;;;;40.60;24.67;;;6.20;99.90;;;;;;5120524;28;20028;-82
2021/11/26 05:10:25;;;;;;;44.03;25.50;;;6.20;99.90;;;;;;5121419;28;20020;-83
2021/11/26 05:12:58;;;;;;;44.20;27.47;;;6.20;99.90;;;;;;5123117;28;20076;-82
2021/11/26 05:15:26;;;;;;;43.77;26.07;;;6.20;99.90;;;;;;5124596;28;20088;-81
2021/11/26 05:18:00;;;;;;;46.87;27.67;;;6.20;99.90;;;;;;5125126;27;20030;-82
2021/11/26 05:20:27;;;;;;;40.20;25.23;;;6.20;99.90;;;;;;5123728;28;20019;-83
2021/11/26 05:22:53;;;;;;;39.57;24.93;;;6.20;99.90;;;;;;5122273;28;20143;-82
2021/11/26 05:25:20;;;;;;;40.70;24.50;;;6.20;99.90;;;;;;5116770;28;20043;-81
2021/11/26 05:27:46;;;;;;;32.60;22.03;;;6.30;99.90;;;;;;5115671;28;20348;-82
2021/11/26 05:30:13;;;;;;;34.53;22.10;;;6.40;99.90;;;;;;5115426;28;20043;-82
2021/11/26 05:32:40;;;;;;;32.10;20.40;;;6.60;99.90;;;;;;5117277;28;20051;-82
2021/11/26 05:35:07;;;;;;;34.77;21.13;;;6.60;99.90;;;;;;5098997;28;20028;-82
2021/11/26 05:37:33;;;;;;;31.93;19.77;;;6.60;99.90;;;;;;5116748;28;20035;-82
2021/11/26 05:39:58;;;;;;;31.77;18.17;;;6.60;99.90;;;;;;5116995;28;20482;-81
2021/11/26 05:42:24;;;;;;;28.73;16.47;;;6.60;99.90;;;;;;5098602;28;20097;-81
2021/11/26 05:44:49;;;;;;;26.43;15.53;;;6.60;99.90;;;;;;5115958;28;20024;-82
2021/11/26 05:47:15;;;;;;;21.27;13.93;;;6.60;99.90;;;;;;5114821;28;20038;-82
2021/11/26 05:49:41;;;;;;;22.10;13.20;;;6.70;99.90;;;;;;5115475;28;20024;-82
2021/11/26 05:52:06;;;;;;;22.57;13.07;;;6.60;99.90;;;;;;5115222;28;20039;-82
2021/11/26 05:54:32;;;;;;;23.83;12.60;;;6.60;99.90;;;;;;5115309;28;20028;-80
2021/11/26 05:56:58;;;;;;;20.30;11.63;;;6.60;99.90;;;;;;5115396;28;20081;-83
2021/11/26 05:59:23;;;;;;;16.27;10.10;;;6.60;99.90;;;;;;5115021;28;20379;-82
2021/11/26 06:01:49;;;;;;;22.03;10.33;;;6.60;99.90;;;;;;5116392;28;20472;-82
2021/11/26 06:04:15;;;;;;;17.80;10.07;;;6.60;99.80;;;;;;5117035;28;20370;-82
2021/11/26 06:06:40;;;;;;;18.63;9.80;;;6.50;99.90;;;;;;5116218;28;20502;-81
2021/11/26 06:09:06;;;;;;;19.57;9.60;;;6.50;99.80;;;;;;5115168;28;20054;-80
2021/11/26 06:11:32;;;;;;;15.57;9.33;;;6.40;99.80;;;;;;5114847;28;20481;-81
2021/11/26 06:13:57;;;;;;;17.50;9.80;;;6.40;99.80;;;;;;5115924;28;20019;-81
2021/11/26 06:16:23;;;;;;;16.40;10.00;;;6.30;99.80;;;;;;5115963;28;20028;-81
2021/11/26 06:18:49;;;;;;;18.73;9.73;;;6.30;99.90;;;;;;5114671;28;20043;-81
2021/11/26 06:21:15;;;;;;;19.20;9.60;;;6.30;99.80;;;;;;5115006;28;20440;-81
2021/11/26 06:23:40;;;;;;;14.80;9.00;;;6.20;99.90;;;;;;5114406;28;20024;-80
2021/11/26 06:26:08;;;;;;;17.40;8.07;;;6.20;99.90;;;;;;5114279;28;20097;-82
2021/11/26 06:28:33;;;;;;;13.17;7.73;;;6.20;99.90;;;;;;5115837;28;20157;-81
2021/11/26 06:30:59;;;;;;;15.47;8.40;;;6.20;99.90;;;;;;5097226;28;20028;-82
2021/11/26 06:33:25;;;;;;;16.70;8.13;;;6.10;99.90;;;;;;5114633;28;20084;-82
2021/11/26 06:35:50;;;;;;;19.40;8.23;;;6.00;99.90;;;;;;5115308;28;20459;-81
2021/11/26 06:38:16;;;;;;;15.73;8.40;;;6.00;99.90;;;;;;5115538;28;20032;-81
2021/11/26 06:40:42;;;;;;;15.87;8.30;;;6.00;99.90;;;;;;5114632;28;20488;-81
2021/11/26 06:43:07;;;;;;;19.30;8.80;;;6.00;99.90;;;;;;5115189;28;20030;-82
2021/11/26 06:45:33;;;;;;;17.17;9.27;;;6.00;99.90;;;;;;5097830;28;20111;-81
2021/11/26 06:47:59;;;;;;;21.47;9.47;;;6.00;99.90;;;;;;5114107;28;20111;-82
2021/11/26 06:50:24;;;;;;;17.20;9.67;;;6.00;99.90;;;;;;5097311;28;20035;-81
2021/11/26 06:52:50;;;;;;;23.73;12.13;;;6.10;99.90;;;;;;5114419;28;20024;-81
2021/11/26 06:55:16;;;;;;;20.53;11.93;;;6.10;99.90;;;;;;5114532;28;20035;-81
2021/11/26 06:57:42;;;;;;;22.87;12.07;;;6.10;99.90;;;;;;5096788;28;20034;-81
2021/11/26 07:00:14;;;;;;;30.63;14.63;;;6.00;99.90;;;;;;5115441;27;20066;-81
2021/11/26 07:02:40;;;;;;;27.83;15.07;;;6.00;99.90;;;;;;5115248;28;20027;-81
2021/11/26 07:05:06;;;;;;;27.97;14.80;;;6.00;99.90;;;;;;5113637;28;20023;-81
2021/11/26 07:07:32;;;;;;;31.77;16.30;;;5.90;99.90;;;;;;5115410;28;20072;-81
2021/11/26 07:09:58;;;;;;;29.63;15.63;;;5.90;99.90;;;;;;5113534;28;20023;-80
2021/11/26 07:12:24;;;;;;;29.30;17.40;;;5.80;99.90;;;;;;5115095;28;20460;-81
2021/11/26 07:14:49;;;;;;;38.60;18.27;;;5.80;99.90;;;;;;5114805;28;20031;-82
2021/11/26 07:17:15;;;;;;;37.80;18.60;;;5.80;99.90;;;;;;5096575;28;20384;-82
2021/11/26 07:19:46;;;;;;;35.47;18.83;;;5.70;99.90;;;;;;5097520;28;20028;-81
2021/11/26 07:22:12;;;;;;;39.03;18.30;;;5.70;99.90;;;;;;5115438;28;20031;-81
2021/11/26 07:24:37;;;;;;;31.20;18.23;;;5.70;99.90;;;;;;5095975;28;20052;-81
2021/11/26 07:27:03;;;;;;;30.20;17.80;;;5.70;99.90;;;;;;5114564;28;20118;-81
2021/11/26 07:29:29;;;;;;;34.17;17.83;;;5.70;99.90;;;;;;5113237;28;20032;-82
2021/11/26 07:31:55;;;;;;;33.47;18.13;;;5.70;99.90;;;;;;5113021;28;20030;-82
2021/11/26 07:34:20;;;;;;;35.77;18.60;;;5.70;99.90;;;;;;5114525;28;20062;-81
2021/11/26 07:36:47;;;;;;;31.83;16.33;;;5.80;99.90;;;;;;5114640;28;20436;-81
2021/11/26 07:39:13;;;;;;;37.37;17.20;;;5.80;99.90;;;;;;5114343;28;20039;-82
2021/11/26 07:41:39;;;;;;;36.07;16.00;;;5.80;99.90;;;;;;5113125;28;20023;-83
2021/11/26 07:44:05;;;;;;;33.70;15.57;;;5.80;99.90;;;;;;5114806;28;20020;-82
2021/11/26 07:46:31;;;;;;;27.37;14.70;;;5.90;99.90;;;;;;5114511;28;20085;-82
2021/11/26 07:48:57;;;;;;;26.93;13.90;;;5.90;99.90;;;;;;5113070;28;20475;-81
2021/11/26 07:51:23;;;;;;;25.73;14.87;;;5.90;99.90;;;;;;5113487;28;20027;-82
2021/11/26 07:53:49;;;;;;;27.97;13.57;;;5.90;99.90;;;;;;5114101;28;20032;-82
2021/11/26 07:56:15;;;;;;;26.27;12.93;;;5.90;99.90;;;;;;5096130;28;20141;-82
2021/11/26 07:58:40;;;;;;;23.60;13.03;;;5.90;99.90;;;;;;5095445;28;20502;-82
2021/11/26 08:01:06;;;;;;;22.43;13.07;;;5.90;99.90;;;;;;5113927;28;20028;-81
2021/11/26 08:03:32;;;;;;;21.20;11.37;;;5.90;99.90;;;;;;5112310;28;20362;-81
2021/11/26 08:05:57;;;;;;;24.93;11.47;;;5.90;99.90;;;;;;5112295;28;20035;-81
2021/11/26 08:08:23;;;;;;;26.37;11.10;;;5.90;99.90;;;;;;5114173;28;20042;-82
2021/11/26 08:10:49;;;;;;;19.87;10.93;;;5.80;99.90;;;;;;5111726;28;20031;-81
2021/11/26 08:13:14;;;;;;;20.67;10.17;;;5.80;99.90;;;;;;5112124;28;20024;-81
2021/11/26 08:15:40;;;;;;;24.87;10.93;;;5.80;99.90;;;;;;5112859;28;20108;-81
2021/11/26 08:18:07;;;;;;;18.57;10.53;;;5.80;99.90;;;;;;5112775;28;20105;-80
2021/11/26 08:20:33;;;;;;;22.30;11.40;;;5.80;99.90;;;;;;5111781;28;20508;-81
2021/11/26 08:22:59;;;;;;;24.23;12.27;;;5.90;99.90;;;;;;5112396;28;20027;-81
2021/11/26 08:25:26;;;;;;;22.53;11.77;;;5.90;99.90;;;;;;5111788;28;20055;-81
2021/11/26 08:27:54;;;;;;;25.07;12.70;;;6.00;99.90;;;;;;5094725;28;20033;-81
2021/11/26 08:30:20;;;;;;;22.73;11.43;;;6.00;99.90;;;;;;5112021;28;20114;-81
2021/11/26 08:32:47;;;;;;;21.77;13.43;;;6.00;99.90;;;;;;5112956;28;20035;-83
2021/11/26 08:35:13;;;;;;;25.23;13.63;;;6.00;99.90;;;;;;5113908;28;20110;-82
2021/11/26 08:37:39;;;;;;;32.50;15.43;;;6.00;99.90;;;;;;5112151;28;20035;-83
2021/11/26 08:40:06;;;;;;;30.93;16.43;;;6.10;99.90;;;;;;5094925;28;20088;-80
2021/11/26 08:42:32;;;;;;;28.83;15.03;;;6.20;99.80;;;;;;5111713;28;20051;-80
2021/11/26 08:44:58;;;;;;;27.33;14.87;;;6.30;99.70;;;;;;5111996;28;20050;-84
2021/11/26 08:47:23;;;;;;;31.50;16.27;;;6.30;99.50;;;;;;5113203;28;20038;-80
2021/11/26 08:49:49;;;;;;;36.77;16.10;;;6.30;99.30;;;;;;5112092;28;20027;-81
2021/11/26 08:52:15;;;;;;;33.77;18.77;;;6.30;99.20;;;;;;5095053;28;20020;-81
2021/11/26 08:54:41;;;;;;;35.67;17.27;;;6.20;99.00;;;;;;5112132;28;20030;-82
2021/11/26 08:57:07;;;;;;;38.37;18.97;;;6.30;99.10;;;;;;5113403;28;20038;-82
2021/11/26 08:59:33;;;;;;;34.50;18.60;;;6.30;99.00;;;;;;5113381;28;20109;-82
2021/11/26 09:01:59;;;;;;;36.13;19.27;;;6.20;98.80;;;;;;5112643;28;20036;-82
2021/11/26 09:04:25;;;;;;;40.00;20.83;;;6.20;98.90;;;;;;5113990;28;20028;-82
2021/11/26 09:06:52;;;;;;;42.43;20.33;;;6.20;99.00;;;;;;5095333;28;20054;-82
2021/11/26 09:09:22;;;;;;;70.63;27.43;;;6.10;99.10;;;;;;5113464;28;20016;-81
2021/11/26 09:11:49;;;;;;;71.57;26.27;;;6.20;99.20;;;;;;5113111;28;20427;-81
2021/11/26 09:14:15;;;;;;;41.50;22.07;;;6.20;99.10;;;;;;5111901;28;20031;-81
2021/11/26 09:16:41;;;;;;;43.00;22.47;;;6.20;99.10;;;;;;5113318;28;20028;-81
2021/11/26 09:19:06;;;;;;;50.00;23.63;;;6.20;98.90;;;;;;5112915;28;20092;-81
2021/11/26 09:21:33;;;;;;;44.27;24.07;;;6.20;98.80;;;;;;5112121;28;20514;-81
2021/11/26 09:23:58;;;;;;;40.57;21.10;;;6.20;98.80;;;;;;5115230;28;20030;-80
2021/11/26 09:26:24;;;;;;;36.77;19.77;;;6.20;98.50;;;;;;5115436;28;20461;-81
2021/11/26 09:28:50;;;;;;;37.93;19.33;;;6.20;98.40;;;;;;5115626;28;20034;-80
2021/11/26 09:31:16;;;;;;;38.93;21.63;;;6.20;98.20;;;;;;5115988;28;20020;-82
2021/11/26 09:33:42;;;;;;;39.37;20.30;;;6.10;98.20;;;;;;5115813;28;20098;-80
2021/11/26 09:36:11;;;;;;;41.70;22.00;;;6.10;97.90;;;;;;5098165;28;20028;-80
2021/11/26 09:38:38;;;;;;;36.03;20.30;;;6.10;98.00;;;;;;5116402;27;20479;-81
2021/11/26 09:41:06;;;;;;;36.90;20.93;;;6.20;98.00;;;;;;5116838;28;20034;-81
2021/11/26 09:43:34;;;;;;;41.30;22.70;;;6.10;97.50;;;;;;5117458;28;20038;-80
2021/11/26 09:46:02;;;;;;;43.43;24.20;;;6.10;97.70;;;;;;5116397;28;20024;-81
2021/11/26 09:48:28;;;;;;;45.17;21.67;;;6.10;97.50;;;;;;5115394;28;20035;-82
2021/11/26 09:50:54;;;;;;;43.30;22.87;;;6.10;97.60;;;;;;5116532;27;20023;-82
2021/11/26 09:53:26;;;;;;;41.33;20.80;;;6.20;97.50;;;;;;5116076;28;20027;-80
2021/11/26 09:55:57;;;;;;;43.60;21.03;;;6.30;97.20;;;;;;5115596;28;20019;-82
2021/11/26 09:58:25;;;;;;;39.33;18.77;;;6.30;97.10;;;;;;5115367;28;20111;-82
2021/11/26 10:00:53;;;;;;;43.93;25.63;;;6.40;97.00;;;;;;5116715;28;20106;-81
2021/11/26 10:03:22;;;;;;;36.47;21.27;;;6.40;97.00;;;;;;5115231;28;20031;-81
2021/11/26 10:05:47;;;;;;;42.70;21.97;;;6.50;96.80;;;;;;5115422;28;20386;-81
2021/11/26 10:08:24;;;;;;;36.60;20.70;;;6.50;96.50;;;;;;5114901;28;20031;-81
2021/11/26 10:10:58;;;;;;;44.87;19.97;;;6.50;96.40;;;;;;5114943;28;20030;-82
2021/11/26 10:13:24;;;;;;;36.90;20.50;;;6.40;95.70;;;;;;5115048;28;20050;-82
2021/11/26 10:15:51;;;;;;;37.10;19.53;;;6.30;95.70;;;;;;5098102;28;20459;-82
2021/11/26 10:18:22;;;;;;;37.50;19.17;;;6.30;95.90;;;;;;5114749;28;20084;-82
2021/11/26 10:21:02;;;;;;;35.70;17.50;;;6.30;95.60;;;;;;5114766;28;20030;-82
2021/11/26 10:23:31;;;;;;;35.23;17.80;;;6.30;95.10;;;;;;5114726;28;20072;-82
2021/11/26 10:26:11;;;;;;;28.87;14.90;;;6.40;95.00;;;;;;5116263;28;20487;-81
2021/11/26 10:28:44;;;;;;;29.37;14.10;;;6.40;94.20;;;;;;5114411;28;20027;-81
2021/11/26 10:31:22;;;;;;;31.80;14.25;;;6.40;94.20;;;;;;5098115;28;20027;-80
2021/11/26 10:33:48;;;;;;;32.03;14.87;;;6.50;93.90;;;;;;5115526;28;20019;-81
2021/11/26 10:36:13;;;;;;;29.70;14.03;;;6.60;93.90;;;;;;5114364;28;20035;-80
2021/11/26 10:38:39;;;;;;;28.57;12.20;;;6.60;93.00;;;;;;5115503;28;20032;-81
2021/11/26 10:41:07;;;;;;;26.33;12.07;;;6.60;92.60;;;;;;5114770;28;20113;-82
2021/11/26 10:59:47;;;;;;;17.27;8.52;;;7.20;91.10;;;;;;5115287;28;20067;-81
2021/11/26 11:02:24;;;;;;;20.10;8.20;;;7.20;91.10;;;;;;5115289;28;20027;-80
2021/11/26 11:04:50;;;;;;;20.20;7.97;;;7.30;91.00;;;;;;5114111;28;20077;-81
2021/11/26 11:07:17;;;;;;;16.00;7.93;;;7.30;90.20;;;;;;5115698;28;20433;-80
2021/11/26 11:09:45;;;;;;;18.80;9.30;;;7.30;90.10;;;;;;5080303;28;20471;-81
2021/11/26 11:12:12;;;;;;;19.90;7.53;;;7.30;90.00;;;;;;5113655;28;20474;-80
2021/11/26 11:14:39;;;;;;;16.07;6.90;;;7.30;89.00;;;;;;5115007;28;20061;-82
2021/11/26 11:17:05;;;;;;;17.77;6.37;;;7.40;88.90;;;;;;5115003;28;20030;-81
2021/11/26 11:19:31;;;;;;;18.33;7.40;;;7.30;87.50;;;;;;5113253;28;20114;-81
2021/11/26 11:21:58;;;;;;;18.73;7.40;;;7.20;88.20;;;;;;5114427;28;20027;-81
2021/11/26 11:24:26;;;;;;;18.03;7.67;;;7.20;89.10;;;;;;5114607;28;20055;-81
2021/11/26 11:26:53;;;;;;;11.83;4.60;;;7.30;88.90;;;;;;5114187;28;20047;-81
2021/11/26 11:29:25;;;;;;;15.70;5.80;;;7.30;88.80;;;;;;5114498;28;20062;-81
2021/11/26 11:31:54;;;;;;;15.85;7.03;;;7.40;88.00;;;;;;5115019;28;20020;-80
2021/11/26 11:34:22;;;;;;;20.80;8.50;;;7.40;87.90;;;;;;5114487;28;20081;-80
2021/11/26 11:36:52;;;;;;;12.90;6.00;;;7.40;88.30;;;;;;5113179;28;20030;-81
2021/11/26 11:39:18;;;;;;;14.27;6.07;;;7.50;86.60;;;;;;5114452;28;20036;-81
2021/11/26 11:41:47;;;;;;;17.70;7.03;;;7.40;87.50;;;;;;5114032;28;20031;-81
2021/11/26 11:44:34;;;;;;;18.87;7.57;;;7.30;87.90;;;;;;5112707;28;20024;-81
2021/11/26 11:47:24;;;;;;;16.20;6.90;;;7.30;88.90;;;;;;5112310;28;20028;-80
2021/11/26 11:49:50;;;;;;;12.97;5.90;;;7.30;89.50;;;;;;5114159;28;20022;-81
2021/11/26 11:52:16;;;;;;;20.67;7.73;;;7.20;88.30;;;;;;5112589;28;20129;-81
2021/11/26 11:54:47;;;;;;;19.63;8.57;;;7.20;89.10;;;;;;5114213;28;20081;-80
2021/11/26 11:57:22;;;;;;;18.10;6.40;;;7.20;90.30;;;;;;5112521;28;20081;-83
2021/11/26 11:59:52;;;;;;;17.17;6.60;;;7.10;90.20;;;;;;5112311;28;20057;-81
2021/11/26 12:02:26;;;;;;;13.17;5.70;;;7.10;90.20;;;;;;5112726;28;20027;-81
2021/11/26 12:04:54;;;;;;;18.50;7.80;;;7.00;90.40;;;;;;5112861;28;20022;-81
2021/11/26 12:07:29;;;;;;;15.10;5.80;;;6.90;90.90;;;;;;5113788;28;20035;-81
2021/11/26 12:10:03;;;;;;;14.20;5.10;;;6.80;91.30;;;;;;5112695;28;20024;-81
2021/11/26 12:12:29;;;;;;;16.30;6.23;;;6.70;91.20;;;;;;5112643;28;20055;-82
2021/11/26 12:14:57;;;;;;;12.60;4.13;;;6.70;91.80;;;;;;5095327;28;20027;-81
2021/11/26 12:17:34;;;;;;;12.00;4.90;;;6.60;91.10;;;;;;5112935;28;20032;-81
2021/11/26 12:20:20;;;;;;;22.13;9.23;;;6.60;91.40;;;;;;5114237;28;20077;-81
2021/11/26 12:22:55;;;;;;;18.03;5.93;;;6.60;92.20;;;;;;5112543;28;20036;-81
2021/11/26 12:28:08;;;;;;;;;;;6.80;91.50;;;;;;5114425;28;20032;-83
2021/11/26 12:30:36;;;;;;;15.03;6.10;;;6.90;92.00;;;;;;5113999;28;20393;-81
2021/11/26 12:33:20;;;;;;;11.97;3.20;;;6.90;91.80;;;;;;5095333;28;20027;-80
2021/11/26 12:35:57;;;;;;;9.70;3.53;;;6.80;90.50;;;;;;5113279;28;20023;-81
2021/11/26 12:38:34;;;;;;;15.77;5.30;;;6.70;90.70;;;;;;5112118;28;20024;-81
2021/11/26 12:40:59;;;;;;;12.40;3.53;;;6.70;91.10;;;;;;5114022;28;20092;-81
2021/11/26 12:43:25;;;;;;;12.60;3.50;;;6.70;91.60;;;;;;5113144;28;20459;-82
2021/11/26 12:45:51;;;;;;;16.20;4.53;;;6.80;91.30;;;;;;5095872;28;20036;-80
2021/11/26 12:48:32;;;;;;;11.03;5.10;;;6.70;91.10;;;;;;5096497;28;20468;-80
2021/11/26 12:51:05;;;;;;;15.60;4.93;;;6.70;91.50;;;;;;5098996;28;20028;-84
2021/11/26 12:53:31;;;;;;;;;;;6.70;91.90;;;;;;5112804;28;20016;-80
2021/11/26 12:56:07;;;;;;;13.10;4.47;;;6.70;91.50;;;;;;5095575;28;20279;-81
2021/11/26 12:58:40;;;;;;;8.67;3.77;;;6.60;90.90;;;;;;5116061;28;20189;-81